createdAt,value
2023-05-15T00:00:37.547Z,60.21
2023-05-15T00:03:05.667Z,59.94
2023-05-15T00:05:34.959Z,60.70
2023-05-15T00:08:02.943Z,61.10
2023-05-15T00:10:30.785Z,61.86
2023-05-15T00:12:58.553Z,61.88
2023-05-15T00:15:27.016Z,62.60
2023-05-15T00:17:55.229Z,63.17
2023-05-15T00:20:23.242Z,63.84
2023-05-15T00:22:52.500Z,63.97
2023-05-15T00:25:20.794Z,63.99
2023-05-15T00:27:48.621Z,63.85
2023-05-15T00:30:16.641Z,64.43
2023-05-15T00:32:44.748Z,64.19
2023-05-15T00:35:12.679Z,64.65
2023-05-15T00:37:40.645Z,64.66
2023-05-15T00:40:11.520Z,64.69
2023-05-15T00:42:40.176Z,64.79
2023-05-15T00:45:10.960Z,65.07
2023-05-15T00:47:40.417Z,65.00
2023-05-15T00:50:10.530Z,65.06
2023-05-15T00:52:39.128Z,64.81
2023-05-15T00:55:07.659Z,64.72
2023-05-15T00:57:37.254Z,64.59
2023-05-15T01:00:07.118Z,63.96
2023-05-15T01:02:35.279Z,63.87
2023-05-15T01:05:03.332Z,63.50
2023-05-15T01:07:33.118Z,63.14
2023-05-15T01:10:02.291Z,62.98
2023-05-15T01:12:31.272Z,62.93
2023-05-15T01:15:01.009Z,62.07
2023-05-15T01:17:28.874Z,62.46
2023-05-15T01:19:58.227Z,62.14
2023-05-15T01:22:42.980Z,62.24
2023-05-15T01:25:45.841Z,62.63
2023-05-15T01:28:16.350Z,62.41
2023-05-15T01:30:45.230Z,62.68
2023-05-15T01:33:18.245Z,63.42
2023-05-15T01:35:49.852Z,63.78
2023-05-15T01:38:20.696Z,64.60
2023-05-15T01:40:49.746Z,64.60
2023-05-15T01:43:23.990Z,65.01
2023-05-15T01:45:51.836Z,66.01
2023-05-15T01:48:21.119Z,66.65
2023-05-15T01:50:50.858Z,67.64
2023-05-15T01:53:20.134Z,67.40
2023-05-15T01:55:48.112Z,68.34
2023-05-15T01:58:16.225Z,68.52
2023-05-15T02:00:45.952Z,68.82
2023-05-15T02:03:14.304Z,68.81
2023-05-15T02:05:42.959Z,68.90
2023-05-15T02:08:10.831Z,68.84
2023-05-15T02:10:38.632Z,68.77
2023-05-15T02:13:06.862Z,68.12
2023-05-15T02:15:35.017Z,68.28
2023-05-15T02:18:04.317Z,68.45
2023-05-15T02:20:35.021Z,69.25
2023-05-15T02:23:02.819Z,69.61
2023-05-15T02:25:39.128Z,69.94
2023-05-15T02:28:09.004Z,69.93
2023-05-15T02:30:45.152Z,69.76
2023-05-15T02:33:23.442Z,69.98
2023-05-15T02:35:54.382Z,70.26
2023-05-15T02:38:27.118Z,69.84
2023-05-15T02:40:57.077Z,70.12
2023-05-15T02:43:25.299Z,70.10
2023-05-15T02:45:53.969Z,69.97
2023-05-15T02:48:23.266Z,70.11
2023-05-15T02:50:51.117Z,70.32
2023-05-15T02:53:18.891Z,70.40
2023-05-15T02:55:46.691Z,70.46
2023-05-15T02:58:14.553Z,70.48
2023-05-15T03:00:42.406Z,70.74
2023-05-15T03:03:10.300Z,70.19
2023-05-15T03:05:39.549Z,70.52
2023-05-15T03:08:07.396Z,70.44
2023-05-15T03:10:35.203Z,70.00
2023-05-15T03:13:03.831Z,69.80
2023-05-15T03:15:31.649Z,69.64
2023-05-15T03:17:59.492Z,69.94
2023-05-15T03:20:27.308Z,69.71
2023-05-15T03:22:56.492Z,69.51
2023-05-15T03:25:24.657Z,69.27
2023-05-15T03:27:52.597Z,69.32
2023-05-15T03:30:20.602Z,69.32
2023-05-15T03:32:48.485Z,68.89
2023-05-15T03:35:16.694Z,69.34
2023-05-15T03:37:44.635Z,68.86
2023-05-15T03:40:15.195Z,68.41
2023-05-15T03:42:42.982Z,68.57
2023-05-15T03:45:11.325Z,68.39
2023-05-15T03:47:39.227Z,68.50
2023-05-15T03:50:07.999Z,68.31
2023-05-15T03:52:35.848Z,68.52
2023-05-15T03:55:03.735Z,68.88
2023-05-15T03:57:33.353Z,68.83
2023-05-15T04:00:03.935Z,69.05
2023-05-15T04:02:31.842Z,69.36
2023-05-15T04:04:59.692Z,69.18
2023-05-15T04:07:28.163Z,69.33
2023-05-15T04:09:55.968Z,69.27
2023-05-15T04:12:23.766Z,69.38
2023-05-15T04:14:52.970Z,69.46
2023-05-15T04:17:20.770Z,69.79
2023-05-15T04:19:48.732Z,70.00
2023-05-15T04:22:16.506Z,70.28
2023-05-15T04:24:44.292Z,70.40
2023-05-15T04:27:12.150Z,70.24
2023-05-15T04:29:39.992Z,70.65
2023-05-15T04:32:09.387Z,71.02
2023-05-15T04:34:37.311Z,71.22
2023-05-15T04:37:05.675Z,71.49
2023-05-15T04:39:33.440Z,71.55
2023-05-15T04:42:01.216Z,71.58
2023-05-15T04:44:29.030Z,71.58
2023-05-15T04:46:56.833Z,72.17
2023-05-15T04:49:26.067Z,72.41
2023-05-15T04:51:53.871Z,72.83
2023-05-15T04:54:21.857Z,73.19
2023-05-15T04:56:49.661Z,74.02
2023-05-15T04:59:18.269Z,74.04
2023-05-15T05:01:46.433Z,73.97
2023-05-15T05:04:14.692Z,74.25
2023-05-15T05:06:43.956Z,74.41
2023-05-15T05:09:11.789Z,74.77
2023-05-15T05:11:43.528Z,74.79
2023-05-15T05:14:11.320Z,74.89
2023-05-15T05:16:39.364Z,74.77
2023-05-15T05:19:07.488Z,74.47
2023-05-15T05:21:35.408Z,74.36
2023-05-15T05:24:04.776Z,74.26
2023-05-15T05:26:32.623Z,74.24
2023-05-15T05:29:00.430Z,74.50
2023-05-15T05:31:28.264Z,74.59
2023-05-15T05:33:56.276Z,74.83
2023-05-15T05:36:24.135Z,75.53
2023-05-15T05:38:51.969Z,76.39
2023-05-15T05:41:21.615Z,76.28
2023-05-15T05:43:52.945Z,76.89
2023-05-15T05:46:21.228Z,77.21
2023-05-15T05:48:49.038Z,77.13
2023-05-15T05:51:16.824Z,77.24
2023-05-15T05:53:44.639Z,77.46
2023-05-15T05:56:12.503Z,77.10
2023-05-15T05:58:41.678Z,77.08
2023-05-15T06:01:09.482Z,77.10
2023-05-15T06:03:37.847Z,77.16
2023-05-15T06:06:06.544Z,77.29
2023-05-15T06:08:34.370Z,77.49
2023-05-15T06:11:02.155Z,77.74
2023-05-15T06:13:29.956Z,77.59
2023-05-15T06:15:59.387Z,78.12
2023-05-15T06:18:27.295Z,78.40
2023-05-15T06:20:55.113Z,78.52
2023-05-15T06:23:24.386Z,78.53
2023-05-15T06:25:52.314Z,78.71
2023-05-15T06:28:20.100Z,78.32
2023-05-15T06:30:47.916Z,77.94
2023-05-15T06:33:17.157Z,77.90
2023-05-15T06:35:45.038Z,77.75
2023-05-15T06:38:12.789Z,77.63
2023-05-15T06:40:40.587Z,77.71
2023-05-15T06:43:08.380Z,77.80
2023-05-15T06:45:36.215Z,77.72
2023-05-15T06:48:04.062Z,77.77
2023-05-15T06:50:33.265Z,77.73
2023-05-15T06:53:01.300Z,77.54
2023-05-15T06:55:29.150Z,77.08
2023-05-15T06:57:57.019Z,77.02
2023-05-15T07:00:24.809Z,76.96
2023-05-15T07:02:52.688Z,76.44
2023-05-15T07:05:21.882Z,76.59
2023-05-15T07:07:51.037Z,75.99
2023-05-15T07:10:18.834Z,75.75
2023-05-15T07:12:46.642Z,75.48
2023-05-15T07:15:14.480Z,74.95
2023-05-15T07:17:42.308Z,75.16
2023-05-15T07:20:10.954Z,74.17
2023-05-15T07:22:51.857Z,74.14
2023-05-15T07:25:25.702Z,73.92
2023-05-15T07:27:53.801Z,73.91
2023-05-15T07:30:21.660Z,74.18
2023-05-15T07:32:49.531Z,73.73
2023-05-15T07:35:18.340Z,73.67
2023-05-15T07:37:46.446Z,73.81
2023-05-15T07:40:15.500Z,73.16
2023-05-15T07:42:45.846Z,72.97
2023-05-15T07:45:13.790Z,71.63
2023-05-15T07:47:46.380Z,70.68
2023-05-15T07:50:14.483Z,70.91
2023-05-15T07:52:43.126Z,71.23
2023-05-15T07:55:11.209Z,69.55
2023-05-15T07:57:40.781Z,70.05
2023-05-15T08:00:13.558Z,70.25
2023-05-15T08:02:42.644Z,69.62
2023-05-15T08:05:10.832Z,70.24
2023-05-15T08:07:38.701Z,69.68
2023-05-15T08:10:07.631Z,69.79
2023-05-15T08:12:35.522Z,69.52
2023-05-15T08:15:03.344Z,68.57
2023-05-15T08:17:32.503Z,68.84
2023-05-15T08:20:00.397Z,68.75
2023-05-15T08:22:30.645Z,68.77
2023-05-15T08:24:58.711Z,66.75
2023-05-15T08:27:26.788Z,67.10
2023-05-15T08:29:55.207Z,66.84
2023-05-15T08:32:23.484Z,66.17
2023-05-15T08:34:52.839Z,66.00
2023-05-15T08:37:20.794Z,66.33
2023-05-15T08:39:48.755Z,65.57
2023-05-15T08:42:22.503Z,65.55
2023-05-15T08:44:51.045Z,65.54
2023-05-15T08:47:20.194Z,65.22
2023-05-15T08:49:55.590Z,64.33
2023-05-15T08:52:23.680Z,64.13
2023-05-15T08:54:51.764Z,64.16
2023-05-15T08:57:19.731Z,64.42
2023-05-15T08:59:48.102Z,64.12
2023-05-15T09:02:17.224Z,64.60
2023-05-15T09:04:45.550Z,63.75
2023-05-15T09:07:15.633Z,63.47
2023-05-15T09:09:44.216Z,62.59
2023-05-15T09:12:12.687Z,62.85
2023-05-15T09:14:40.501Z,62.49
2023-05-15T09:17:08.645Z,62.11
2023-05-15T09:19:36.943Z,61.77
2023-05-15T09:22:18.296Z,61.63
2023-05-15T09:24:48.161Z,61.73
2023-05-15T09:27:16.258Z,61.34
2023-05-15T09:29:44.060Z,61.21
2023-05-15T09:32:13.941Z,61.25
2023-05-15T09:34:43.127Z,60.36
2023-05-15T09:37:12.378Z,61.15
2023-05-15T09:39:43.574Z,61.26
2023-05-15T09:42:12.731Z,60.95
2023-05-15T09:44:42.837Z,61.61
2023-05-15T09:47:11.197Z,61.17
2023-05-15T09:49:39.153Z,60.68
2023-05-15T09:52:09.389Z,61.27
2023-05-15T09:54:37.851Z,60.62
2023-05-15T09:57:11.324Z,60.08
2023-05-15T09:59:44.924Z,60.25
2023-05-15T10:02:15.236Z,60.27
2023-05-15T10:04:43.055Z,60.51
2023-05-15T10:07:10.981Z,61.02
2023-05-15T10:09:39.501Z,61.75
2023-05-15T10:12:10.987Z,61.76
2023-05-15T10:14:38.795Z,61.66
2023-05-15T10:17:06.670Z,62.20
2023-05-15T10:19:37.525Z,61.77
2023-05-15T10:22:10.162Z,60.52
2023-05-15T10:24:39.980Z,59.91
2023-05-15T10:27:08.014Z,60.12
2023-05-15T10:29:37.878Z,59.76
2023-05-15T10:32:06.129Z,58.96
2023-05-15T10:34:34.390Z,57.58
2023-05-15T10:37:02.374Z,57.31
2023-05-15T10:39:30.689Z,54.88
2023-05-15T10:41:58.933Z,54.09
2023-05-15T10:44:26.750Z,53.22
2023-05-15T10:46:56.593Z,52.52
2023-05-15T10:49:24.704Z,54.15
2023-05-15T10:51:53.918Z,55.76
2023-05-15T10:54:23.147Z,55.98
2023-05-15T10:56:52.224Z,55.58
2023-05-15T10:59:20.374Z,52.06
2023-05-15T11:01:49.239Z,53.32
2023-05-15T11:04:20.267Z,53.18
2023-05-15T11:06:49.117Z,50.72
2023-05-15T11:09:36.637Z,49.09
2023-05-15T11:12:06.129Z,49.27
2023-05-15T11:14:35.816Z,48.31
2023-05-15T11:17:05.344Z,49.14
2023-05-15T11:19:39.640Z,47.21
2023-05-15T11:22:21.111Z,46.72
2023-05-15T11:24:51.388Z,46.32
2023-05-15T11:27:20.405Z,45.61
2023-05-15T11:30:08.581Z,44.51
2023-05-15T11:32:43.866Z,44.38
2023-05-15T11:35:13.840Z,43.49
2023-05-15T11:37:43.985Z,41.37
2023-05-15T11:40:15.691Z,41.64
2023-05-15T11:42:43.493Z,42.26
2023-05-15T11:45:11.929Z,40.88
2023-05-15T11:47:39.719Z,42.42
2023-05-15T11:50:08.586Z,42.60
2023-05-15T11:52:38.016Z,42.70
2023-05-15T11:55:07.026Z,40.83
2023-05-15T11:57:34.875Z,40.15
2023-05-15T12:00:02.652Z,40.66
2023-05-15T12:02:30.531Z,40.75
2023-05-15T12:04:58.514Z,39.74
2023-05-15T12:07:26.472Z,39.18
2023-05-15T12:09:56.032Z,37.70
2023-05-15T12:12:26.946Z,36.32
2023-05-15T12:14:59.316Z,37.80
2023-05-15T12:17:27.734Z,37.73
2023-05-15T12:19:57.132Z,37.82
2023-05-15T12:22:24.923Z,36.23
2023-05-15T12:24:52.750Z,36.35
2023-05-15T12:27:21.926Z,37.34
2023-05-15T12:29:49.722Z,36.19
2023-05-15T12:32:17.790Z,36.95
2023-05-15T12:34:46.283Z,36.19
2023-05-15T12:37:14.576Z,37.03
2023-05-15T12:39:52.092Z,33.72
2023-05-15T12:42:21.279Z,34.81
2023-05-15T12:44:52.188Z,34.86
2023-05-15T12:47:27.815Z,32.72
2023-05-15T12:49:58.705Z,35.13
2023-05-15T12:52:29.627Z,35.68
2023-05-15T12:55:01.377Z,35.00
2023-05-15T12:57:30.845Z,35.51
2023-05-15T12:59:58.638Z,36.41
2023-05-15T13:02:26.433Z,35.17
2023-05-15T13:04:54.274Z,35.27
2023-05-15T13:07:22.704Z,34.33
2023-05-15T13:10:03.706Z,34.15
2023-05-15T13:12:38.271Z,31.52
2023-05-15T13:15:07.581Z,30.55
2023-05-15T13:17:36.167Z,31.81
2023-05-15T13:20:05.694Z,32.79
2023-05-15T13:22:33.525Z,31.87
2023-05-15T13:25:01.290Z,30.41
2023-05-15T13:27:29.052Z,31.66
2023-05-15T13:29:58.230Z,32.25
2023-05-15T13:32:26.046Z,31.85
2023-05-15T13:34:54.962Z,32.67
2023-05-15T13:37:22.992Z,32.55
2023-05-15T13:39:50.762Z,33.92
2023-05-15T13:42:18.573Z,36.85
2023-05-15T13:44:46.330Z,35.52
2023-05-15T13:47:15.617Z,35.92
2023-05-15T13:49:43.463Z,36.51
2023-05-15T13:52:11.259Z,36.89
2023-05-15T13:54:39.461Z,36.52
2023-05-15T13:57:07.253Z,36.29
2023-05-15T13:59:35.096Z,36.23
2023-05-15T14:02:02.956Z,37.38
2023-05-15T14:04:32.307Z,38.68
2023-05-15T14:07:00.214Z,39.42
2023-05-15T14:09:28.527Z,39.72
2023-05-15T14:11:56.404Z,40.37
2023-05-15T14:14:24.638Z,40.98
2023-05-15T14:16:52.841Z,41.12
2023-05-15T14:19:20.854Z,42.09
2023-05-15T14:21:50.175Z,42.32
2023-05-15T14:24:18.000Z,40.52
2023-05-15T14:26:46.091Z,40.31
2023-05-15T14:29:14.299Z,39.89
2023-05-15T14:31:42.453Z,38.80
2023-05-15T14:34:11.060Z,40.26
2023-05-15T14:36:38.807Z,38.06
2023-05-15T14:39:07.956Z,38.99
2023-05-15T14:41:35.749Z,38.71
2023-05-15T14:44:03.538Z,37.30
2023-05-15T14:46:31.326Z,37.96
2023-05-15T14:48:59.150Z,37.40
2023-05-15T14:51:26.929Z,36.76
2023-05-15T14:53:54.718Z,37.42
2023-05-15T14:56:23.924Z,36.56
2023-05-15T14:58:53.695Z,37.42
2023-05-15T15:01:21.642Z,35.69
2023-05-15T15:03:49.582Z,35.83
2023-05-15T15:06:17.590Z,35.96
2023-05-15T15:08:45.373Z,35.76
2023-05-15T15:11:13.202Z,35.48
2023-05-15T15:13:42.299Z,33.25
2023-05-15T15:16:10.192Z,33.40
2023-05-15T15:18:38.108Z,32.68
2023-05-15T15:21:06.217Z,33.79
2023-05-15T15:23:34.009Z,33.47
2023-05-15T15:26:01.809Z,33.38
2023-05-15T15:28:33.580Z,34.51
2023-05-15T15:31:02.806Z,33.22
2023-05-15T15:33:30.579Z,31.99
2023-05-15T15:35:58.344Z,32.55
2023-05-15T15:38:26.201Z,31.13
2023-05-15T15:40:53.990Z,31.65
2023-05-15T15:43:21.746Z,31.67
2023-05-15T15:45:49.584Z,37.27
2023-05-15T15:48:19.148Z,37.25
2023-05-15T15:50:47.423Z,38.72
2023-05-15T15:53:15.177Z,37.95
2023-05-15T15:55:44.158Z,37.94
2023-05-15T15:58:12.892Z,38.70
2023-05-15T16:00:41.247Z,39.27
2023-05-15T16:03:09.231Z,40.12
2023-05-15T16:05:38.427Z,40.44
2023-05-15T16:08:06.715Z,41.71
2023-05-15T16:10:34.478Z,41.83
2023-05-15T16:13:02.332Z,42.54
2023-05-15T16:15:30.104Z,42.77
2023-05-15T16:17:58.018Z,43.03
2023-05-15T16:20:26.248Z,43.30
2023-05-15T16:22:55.646Z,44.03
2023-05-15T16:25:23.544Z,44.14
2023-05-15T16:27:51.342Z,45.37
2023-05-15T16:30:19.224Z,46.29
2023-05-15T16:32:47.085Z,46.57
2023-05-15T16:35:14.880Z,47.09
2023-05-15T16:37:42.689Z,47.51
2023-05-15T16:40:12.860Z,46.61
2023-05-15T16:42:41.508Z,46.56
2023-05-15T16:45:10.177Z,45.69
2023-05-15T16:47:39.297Z,44.60
2023-05-15T16:50:08.265Z,44.16
2023-05-15T16:52:36.847Z,43.31
2023-05-15T16:55:05.038Z,42.76
2023-05-15T16:57:37.654Z,42.59
2023-05-15T17:00:07.592Z,42.33
2023-05-15T17:02:35.501Z,41.88
2023-05-15T17:05:03.698Z,42.20
2023-05-15T17:07:31.447Z,42.82
2023-05-15T17:09:59.304Z,43.28
2023-05-15T17:12:27.164Z,43.75
2023-05-15T17:14:58.577Z,43.10
2023-05-15T17:17:26.494Z,44.71
2023-05-15T17:19:54.351Z,44.60
2023-05-15T17:22:22.703Z,44.99
2023-05-15T17:24:52.361Z,44.91
2023-05-15T17:27:20.761Z,45.00
2023-05-15T17:29:49.020Z,45.23
2023-05-15T17:32:19.089Z,45.57
2023-05-15T17:34:47.315Z,44.84
2023-05-15T17:37:15.415Z,45.91
2023-05-15T17:39:43.215Z,45.90
2023-05-15T17:42:10.993Z,45.86
2023-05-15T17:44:39.305Z,46.02
2023-05-15T17:47:07.829Z,46.26
2023-05-15T17:49:37.012Z,47.12
2023-05-15T17:52:05.170Z,47.25
2023-05-15T17:54:32.962Z,48.09
2023-05-15T17:57:00.764Z,48.14
2023-05-15T17:59:29.153Z,48.31
2023-05-15T18:01:57.064Z,48.57
2023-05-15T18:04:25.090Z,48.13
2023-05-15T18:06:54.292Z,48.35
2023-05-15T18:09:24.264Z,48.99
2023-05-15T18:11:52.637Z,49.70
2023-05-15T18:14:20.496Z,49.32
2023-05-15T18:16:48.316Z,49.88
2023-05-15T18:19:16.184Z,49.92
2023-05-15T18:21:43.952Z,49.43
2023-05-15T18:24:13.133Z,49.51
2023-05-15T18:26:41.072Z,50.13
2023-05-15T18:29:08.898Z,50.68
2023-05-15T18:31:37.285Z,50.88
2023-05-15T18:34:05.249Z,51.53
2023-05-15T18:36:33.017Z,51.36
2023-05-15T18:39:02.476Z,51.68
2023-05-15T18:41:31.636Z,52.04
2023-05-15T18:43:59.452Z,52.30
2023-05-15T18:46:28.426Z,52.03
2023-05-15T18:48:56.402Z,52.03
2023-05-15T18:51:24.562Z,52.54
2023-05-15T18:53:52.374Z,52.55
2023-05-15T18:56:20.120Z,52.74
2023-05-15T18:58:49.323Z,52.99
2023-05-15T19:01:17.238Z,54.49
2023-05-15T19:03:45.163Z,53.90
2023-05-15T19:06:19.688Z,54.57
2023-05-15T19:08:48.316Z,55.08
2023-05-15T19:11:16.135Z,54.92
2023-05-15T19:13:43.885Z,55.16
2023-05-15T19:16:13.057Z,55.97
2023-05-15T19:18:40.886Z,56.02
2023-05-15T19:21:08.710Z,56.14
2023-05-15T19:23:36.474Z,56.70
2023-05-15T19:26:04.395Z,57.12
2023-05-15T19:28:32.264Z,57.29
2023-05-15T19:31:00.002Z,58.29
2023-05-15T19:33:29.445Z,58.42
2023-05-15T19:35:57.231Z,58.22
2023-05-15T19:38:24.981Z,58.84
2023-05-15T19:40:53.008Z,58.96
2023-05-15T19:43:20.765Z,59.60
2023-05-15T19:45:48.694Z,59.44
2023-05-15T19:48:16.574Z,59.96
2023-05-15T19:50:46.063Z,60.52
2023-05-15T19:53:13.848Z,60.11
2023-05-15T19:55:41.833Z,60.96
2023-05-15T19:58:09.678Z,61.33
2023-05-15T20:00:37.457Z,61.33
2023-05-15T20:03:05.504Z,61.35
2023-05-15T20:05:33.398Z,60.55
2023-05-15T20:08:02.574Z,60.67
2023-05-15T20:10:30.521Z,60.13
2023-05-15T20:12:58.356Z,61.07
2023-05-15T20:15:29.274Z,61.11
2023-05-15T20:17:57.140Z,61.03
2023-05-15T20:20:25.256Z,61.18
2023-05-15T20:22:53.285Z,60.85
2023-05-15T20:25:24.243Z,60.56
2023-05-15T20:27:56.415Z,60.20
2023-05-15T20:30:24.579Z,60.56
2023-05-15T20:32:52.774Z,60.29
2023-05-15T20:35:20.871Z,60.26
2023-05-15T20:37:48.609Z,59.77
2023-05-15T20:40:16.642Z,60.13
2023-05-15T20:42:45.986Z,60.38
2023-05-15T20:45:13.968Z,60.79
2023-05-15T20:47:45.407Z,61.12
2023-05-15T20:50:13.733Z,61.74
2023-05-15T20:52:41.741Z,62.28
2023-05-15T20:55:15.975Z,61.88
2023-05-15T20:57:49.379Z,62.84
2023-05-15T21:00:18.814Z,63.68
2023-05-15T21:02:47.516Z,64.05
2023-05-15T21:05:15.785Z,64.23
2023-05-15T21:07:44.479Z,64.17
2023-05-15T21:10:12.785Z,64.79
2023-05-15T21:12:42.168Z,64.93
2023-05-15T21:15:12.230Z,65.67
2023-05-15T21:17:40.973Z,65.98
2023-05-15T21:20:10.531Z,66.31
2023-05-15T21:22:38.417Z,67.14
2023-05-15T21:25:07.007Z,67.88
2023-05-15T21:27:34.893Z,68.22
2023-05-15T21:30:02.770Z,68.71
2023-05-15T21:32:32.020Z,68.73
2023-05-15T21:34:59.862Z,69.39
2023-05-15T21:37:28.210Z,70.16
2023-05-15T21:39:55.976Z,70.45
2023-05-15T21:42:23.906Z,70.26
2023-05-15T21:44:51.660Z,70.42
2023-05-15T21:47:19.538Z,71.36
2023-05-15T21:49:48.740Z,71.57
2023-05-15T21:52:16.668Z,71.71
2023-05-15T21:54:44.708Z,72.13
2023-05-15T21:57:12.529Z,72.22
2023-05-15T21:59:40.389Z,72.62
2023-05-15T22:02:08.346Z,73.23
2023-05-15T22:04:36.318Z,73.35
2023-05-15T22:07:05.854Z,73.67
2023-05-15T22:09:33.803Z,73.99
2023-05-15T22:12:01.637Z,74.60
2023-05-15T22:14:29.535Z,74.85
2023-05-15T22:16:57.350Z,75.06
2023-05-15T22:19:33.013Z,75.33
2023-05-15T22:22:01.907Z,75.61
2023-05-15T22:24:31.201Z,75.45
2023-05-15T22:26:59.061Z,76.38
2023-05-15T22:29:26.905Z,76.55
2023-05-15T22:31:55.181Z,76.57
2023-05-15T22:34:23.096Z,76.86
2023-05-15T22:36:50.841Z,76.78
2023-05-15T22:39:18.665Z,76.95
2023-05-15T22:41:47.890Z,77.30
2023-05-15T22:44:15.926Z,77.30
2023-05-15T22:46:44.060Z,77.44
2023-05-15T22:49:23.468Z,77.87
2023-05-15T22:51:51.603Z,77.66
2023-05-15T22:54:21.748Z,77.94
2023-05-15T22:56:52.181Z,78.41
2023-05-15T22:59:20.109Z,78.77
2023-05-15T23:01:49.225Z,78.52
2023-05-15T23:04:18.220Z,78.48
2023-05-15T23:06:46.419Z,78.22
2023-05-15T23:09:14.208Z,78.80
2023-05-15T23:11:42.214Z,78.96
2023-05-15T23:14:12.151Z,78.76
2023-05-15T23:16:39.960Z,78.87
2023-05-15T23:19:07.931Z,79.29
2023-05-15T23:21:36.367Z,79.33
2023-05-15T23:24:04.336Z,79.39
2023-05-15T23:26:32.337Z,79.24
2023-05-15T23:29:00.281Z,79.42
2023-05-15T23:31:29.552Z,79.52
2023-05-15T23:33:57.379Z,79.79
2023-05-15T23:36:25.417Z,79.57
2023-05-15T23:38:53.232Z,79.69
2023-05-15T23:41:21.989Z,79.90
2023-05-15T23:43:50.775Z,79.91
2023-05-15T23:46:18.875Z,79.93
2023-05-15T23:48:48.339Z,80.32
2023-05-15T23:51:16.524Z,80.41
2023-05-15T23:53:44.531Z,79.93
2023-05-15T23:56:12.280Z,80.28
2023-05-15T23:58:40.298Z,80.32
